METAR Data
IDs: Format: Raw Decoded Include TAF

Data at: 0109 UTC 06 Dec 2019

KAND 060056Z AUTO 00000KT 10SM CLR 08/M02 A3015 RMK AO2 SLP210 T00781022
KAND 052356Z AUTO 00000KT 10SM CLR 09/M02 A3014 RMK AO2 SLP206 T00891022 10178 20089 53013
KAND 052256Z AUTO 19003KT 10SM CLR 12/M04 A3012 RMK AO2 SLP199 T01221039
KAND 052156Z AUTO 20004KT 10SM CLR 16/M06 A3011 RMK AO2 SLP193 T01561061
KAND 052056Z AUTO 24004KT 10SM CLR 17/M08 A3010 RMK AO2 SLP190 T01721078 53000
KAND 051956Z AUTO 24005KT 10SM CLR 18/M07 A3009 RMK AO2 SLP184 T01781067
KAND 051856Z AUTO 25006KT 10SM CLR 16/M07 A3009 RMK AO2 SLP186 T01611072
KAND 051756Z AUTO 25003KT 10SM CLR 16/M06 A3010 RMK AO2 SLP190 T01611056 10161 20061 50000
KAND 051656Z AUTO 21004KT 10SM CLR 15/M04 A3012 RMK AO2 SLP196 T01501039
KAND 051556Z AUTO VRB03KT 10SM CLR 14/M03 A3012 RMK AO2 SLP198 T01391033
KAND 051456Z AUTO 30006KT 10SM CLR 12/M03 A3010 RMK AO2 SLP191 T01171033 52031
KAND 051356Z AUTO 28007KT 10SM CLR 11/M01 A3007 RMK AO2 SLP180 T01061011
KAND 051256Z AUTO 24004KT 10SM CLR 07/M03 A3004 RMK AO2 SLP171 T00721028
KAND 051156Z AUTO 27007KT 10SM CLR 07/M03 A3001 RMK AO2 SLP160 T00721033 10111 20061 53021
KAND 051056Z AUTO 29008KT 10SM CLR 09/M04 A2998 RMK AO2 SLP150 T00941039
KAND 050956Z AUTO 28012KT 10SM CLR 10/M04 A2996 RMK AO2 SLP142 T01001039
KAND 050856Z AUTO 27012KT 10SM CLR 11/M03 A2994 RMK AO2 SLP136 T01061033 53020
KAND 050756Z AUTO 27011KT 10SM CLR 11/M02 A2992 RMK AO2 SLP129 T01061022
KAND 050656Z AUTO 25009KT 10SM CLR 09/M02 A2990 RMK AO2 SLP121 T00941017
KAND 050556Z AUTO 24007KT 10SM CLR 09/M02 A2988 RMK AO2 SLP117 T00941017 10106 20094 53002
KAND 050456Z AUTO 25009KT 10SM CLR 09/M02 A2988 RMK AO2 SLP115 T00941017
KAND 050356Z AUTO 25010KT 10SM CLR 10/M02 A2988 RMK AO2 SLP116 T01001017
KAND 050256Z AUTO 25008KT 10SM CLR 10/M02 A2988 RMK AO2 SLP116 T01001022 51008
KAND 050156Z AUTO 25007KT 10SM CLR 09/M03 A2988 RMK AO2 SLP116 T00941028
KAND 050056Z AUTO 27005KT 10SM CLR 10/M03 A2987 RMK AO2 SLP113 T01001033
KAND 042356Z AUTO 29008KT 10SM CLR 11/M03 A2985 RMK AO2 SLPNO T01061028 10172 20106 53026
KAND 042256Z AUTO 27010KT 10SM CLR 13/M04 A2982 RMK AO2 SLPNO T01331044
KAND 042156Z AUTO 28009KT 10SM CLR 14/M04 A2980 RMK AO2 SLPNO T01441044
KAND 042056Z AUTO 29014KT 10SM CLR 16/M04 A2977 RMK AO2 SLPNO T01611044 55003
KAND 041956Z AUTO 27015G24KT 10SM CLR 17/M05 A2976 RMK AO2 SLPNO T01671050
KAND 041856Z AUTO 24011KT 10SM CLR 16/M01 A2976 RMK AO2 SLPNO T01611006
KAND 041756Z AUTO 24015G21KT 10SM CLR 14/M01 A2978 RMK AO2 SLPNO T01441011 58016
KAND 041656Z AUTO 27008KT 10SM CLR 13/M01 A2980 RMK AO2 SLPNO T01331011
KAND 041556Z AUTO 26009KT 10SM CLR 11/M02 A2982 RMK AO2 SLPNO T01111017
KAND 041456Z AUTO 23010KT 10SM CLR 09/M01 A2983 RMK AO2 SLPNO T00941011 51012
KAND 041356Z AUTO 20003KT 10SM CLR 06/M01 A2983 RMK AO2 SLPNO T00611011